Time;durP1;ratioP1;P1;durP2;ratioP2;P2;SDS_P1;SDS_P2;PMS_P1;PMS_P2;Temp;Humidity;BMP_temperature;BMP_pressure;BME280_temperature;BME280_humidity;BME280_pressure;Samples;Min_cycle;Max_cycle;Signal;HPM_P1;HPM_P2
2021/05/13 00:01:20;;;;;;;15.35;8.07;;;12.20;81.40;;;;;;5092123;28;20103;-75
2021/05/13 00:03:47;;;;;;;13.82;7.72;;;12.30;81.40;;;;;;5074413;28;20024;-75
2021/05/13 00:06:13;;;;;;;13.82;8.75;;;12.20;81.50;;;;;;5092061;28;20043;-75
2021/05/13 00:08:38;;;;;;;16.67;8.25;;;12.20;81.50;;;;;;5078700;28;20033;-75
2021/05/13 00:11:05;;;;;;;12.20;7.63;;;12.30;81.60;;;;;;5055155;28;20060;-75
2021/05/13 00:13:34;;;;;;;14.38;8.80;;;12.30;81.50;;;;;;5054473;28;20109;-75
2021/05/13 00:15:59;;;;;;;13.80;9.07;;;12.20;81.40;;;;;;5088323;28;20039;-75
2021/05/13 00:18:26;;;;;;;14.27;9.27;;;12.20;81.50;;;;;;5072238;28;20029;-75
2021/05/13 00:20:52;;;;;;;14.13;9.18;;;12.20;81.70;;;;;;5090513;28;20032;-75
2021/05/13 00:23:18;;;;;;;14.68;9.85;;;12.10;81.80;;;;;;5074109;28;20040;-75
2021/05/13 00:25:47;;;;;;;18.73;9.68;;;12.10;82.00;;;;;;5083675;28;20135;-75
2021/05/13 00:28:13;;;;;;;12.88;9.65;;;12.10;82.10;;;;;;5072158;28;20025;-75
2021/05/13 00:30:38;;;;;;;17.98;9.80;;;12.20;82.00;;;;;;5075736;28;20041;-75
2021/05/13 00:33:04;;;;;;;19.33;11.35;;;12.10;82.10;;;;;;5083886;28;20046;-75
2021/05/13 00:35:30;;;;;;;16.15;10.68;;;12.10;82.90;;;;;;5063280;28;20036;-75
2021/05/13 00:37:56;;;;;;;15.70;10.15;;;12.10;82.40;;;;;;5078284;28;20028;-76
2021/05/13 00:40:22;;;;;;;16.38;10.98;;;12.10;82.30;;;;;;5081059;28;20303;-75
2021/05/13 00:42:48;;;;;;;15.90;10.02;;;12.10;82.30;;;;;;5071486;28;20058;-75
2021/05/13 00:45:15;;;;;;;12.48;10.20;;;12.10;82.10;;;;;;5091939;28;20028;-75
2021/05/13 00:50:21;;;;;;;17.15;10.73;;;12.10;82.10;;;;;;5084202;28;20420;-75
2021/05/13 00:52:47;;;;;;;19.75;12.15;;;12.10;82.20;;;;;;5080890;28;20039;-75
2021/05/13 00:55:15;;;;;;;19.75;12.38;;;12.10;82.20;;;;;;5091688;28;20024;-75
2021/05/13 00:57:44;;;;;;;19.03;12.40;;;12.10;82.10;;;;;;5075230;28;20032;-75
2021/05/13 01:00:52;;;;;;;18.35;12.00;;;12.00;82.00;;;;;;5095373;28;20107;-75
2021/05/13 01:03:03;;;;;;;17.65;12.30;;;12.00;82.00;;;;;;5077953;28;20037;-75
2021/05/13 01:05:30;;;;;;;19.15;12.63;;;11.90;82.00;;;;;;5078171;28;20052;-75
2021/05/13 01:07:58;;;;;;;15.75;11.82;;;11.90;82.20;;;;;;5075366;28;20037;-75
2021/05/13 01:10:25;;;;;;;17.30;11.73;;;11.90;82.20;;;;;;5060404;28;20028;-75
2021/05/13 01:12:51;;;;;;;17.90;12.60;;;11.90;82.20;;;;;;5077051;28;20491;-75
2021/05/13 01:15:38;;;;;;;15.68;11.35;;;11.90;82.10;;;;;;5070755;28;20483;-75
2021/05/13 01:18:17;;;;;;;16.20;11.73;;;11.90;82.20;;;;;;5059721;28;20028;-75
2021/05/13 01:20:43;;;;;;;22.02;13.48;;;11.90;82.20;;;;;;5077750;28;20115;-75
2021/05/13 01:23:11;;;;;;;21.52;14.50;;;11.80;82.20;;;;;;5093810;28;20039;-75
2021/05/13 01:25:53;;;;;;;18.60;13.55;;;11.80;82.30;;;;;;5077063;28;20481;-75
2021/05/13 01:28:20;;;;;;;19.10;13.27;;;11.80;82.50;;;;;;5093375;28;20032;-75
2021/05/13 01:30:47;;;;;;;23.02;16.48;;;11.80;82.50;;;;;;5091844;28;20024;-75
2021/05/13 01:33:13;;;;;;;19.90;15.10;;;11.80;82.60;;;;;;5056231;28;20039;-75
2021/05/13 01:35:42;;;;;;;21.92;15.68;;;11.70;82.90;;;;;;5073871;28;20079;-75
2021/05/13 01:38:14;;;;;;;22.83;14.90;;;11.60;83.10;;;;;;5081701;28;20103;-75
2021/05/13 01:40:41;;;;;;;21.52;15.57;;;11.60;83.10;;;;;;5090712;28;20043;-75
2021/05/13 01:43:07;;;;;;;21.83;15.40;;;11.60;83.20;;;;;;5076221;28;20499;-75
2021/05/13 01:45:33;;;;;;;22.40;16.15;;;11.60;83.20;;;;;;5094327;28;20079;-75
2021/05/13 01:48:04;;;;;;;23.63;17.23;;;11.60;83.30;;;;;;5057729;28;20110;-75
2021/05/13 01:50:31;;;;;;;22.48;16.33;;;11.60;83.30;;;;;;5095861;28;20032;-75
2021/05/13 01:52:58;;;;;;;22.25;17.17;;;11.50;83.30;;;;;;5084924;28;20056;-75
2021/05/13 01:55:24;;;;;;;23.45;16.35;;;11.50;83.30;;;;;;5077676;28;20536;-75
2021/05/13 01:57:49;;;;;;;19.48;16.58;;;11.50;83.30;;;;;;5067168;28;20036;-75
2021/05/13 02:00:15;;;;;;;20.92;16.75;;;11.50;83.30;;;;;;5071317;28;20043;-75
2021/05/13 02:02:44;;;;;;;23.10;17.70;;;11.50;83.30;;;;;;5084178;28;20037;-75
2021/05/13 02:05:10;;;;;;;22.17;17.07;;;11.40;83.30;;;;;;5041060;28;20021;-75
2021/05/13 02:07:36;;;;;;;23.17;18.80;;;11.50;83.50;;;;;;5075661;28;20797;-75
2021/05/13 02:10:02;;;;;;;23.70;17.25;;;11.40;83.50;;;;;;5075164;28;20120;-75
2021/05/13 02:12:28;;;;;;;21.00;16.95;;;11.40;83.60;;;;;;5093894;28;20366;-75
2021/05/13 02:14:53;;;;;;;21.98;16.33;;;11.30;83.60;;;;;;5076370;28;20031;-75
2021/05/13 02:17:19;;;;;;;22.30;17.08;;;11.30;83.60;;;;;;5062039;28;20036;-75
2021/05/13 02:19:44;;;;;;;22.52;17.48;;;11.30;83.50;;;;;;5087716;28;20056;-75
2021/05/13 02:22:10;;;;;;;22.15;17.00;;;11.30;83.50;;;;;;5090724;28;20043;-75
2021/05/13 02:24:36;;;;;;;25.65;18.67;;;11.30;83.40;;;;;;5093812;28;20036;-75
2021/05/13 02:27:01;;;;;;;27.02;20.42;;;11.30;83.30;;;;;;5092865;28;20046;-75
2021/05/13 02:29:27;;;;;;;24.70;18.65;;;11.30;83.30;;;;;;5075017;28;20031;-75
2021/05/13 02:31:52;;;;;;;27.45;18.15;;;11.20;83.30;;;;;;5049181;28;20059;-75
2021/05/13 02:34:18;;;;;;;25.42;17.52;;;11.10;83.50;;;;;;5082745;28;20124;-75
2021/05/13 02:36:44;;;;;;;24.17;17.95;;;11.10;83.50;;;;;;5069851;28;20036;-75
2021/05/13 02:39:09;;;;;;;22.60;15.98;;;11.00;83.60;;;;;;5089852;28;20024;-75
2021/05/13 02:41:35;;;;;;;23.88;16.42;;;11.00;83.90;;;;;;5069273;28;20115;-75
2021/05/13 02:44:01;;;;;;;20.30;15.57;;;11.00;84.10;;;;;;5091456;28;20051;-75
2021/05/13 02:46:26;;;;;;;26.05;16.73;;;10.90;84.20;;;;;;5067798;28;20100;-75
2021/05/13 02:48:52;;;;;;;23.90;16.42;;;10.90;84.30;;;;;;5093192;28;20439;-75
2021/05/13 02:51:18;;;;;;;17.38;14.65;;;10.90;84.20;;;;;;5084761;28;20028;-75
2021/05/13 02:53:43;;;;;;;23.40;16.35;;;10.80;83.90;;;;;;5074651;28;20043;-75
2021/05/13 02:56:09;;;;;;;20.02;14.55;;;10.80;84.00;;;;;;5074540;28;20024;-75
2021/05/13 02:58:34;;;;;;;25.23;17.02;;;10.80;84.00;;;;;;5075399;28;20032;-75
2021/05/13 03:03:32;;;;;;;22.23;16.33;;;10.70;84.00;;;;;;5090815;28;20035;-75
2021/05/13 03:05:58;;;;;;;19.50;15.02;;;10.70;84.20;;;;;;5074535;28;20396;-75
2021/05/13 03:08:23;;;;;;;18.88;14.43;;;10.60;84.30;;;;;;5058250;28;20036;-75
2021/05/13 03:10:49;;;;;;;23.98;16.73;;;10.60;84.50;;;;;;5093079;28;20032;-75
2021/05/13 03:13:21;;;;;;;25.98;15.85;;;10.60;84.60;;;;;;5061637;28;20068;-75
2021/05/13 03:15:47;;;;;;;18.98;15.05;;;10.60;84.70;;;;;;5082013;28;20039;-75
2021/05/13 03:18:13;;;;;;;20.02;15.52;;;10.50;84.70;;;;;;5088400;28;20028;-75
2021/05/13 03:20:44;;;;;;;20.25;15.52;;;10.50;84.80;;;;;;5092632;28;20384;-75
2021/05/13 03:23:11;;;;;;;20.70;14.48;;;10.50;84.80;;;;;;5061972;28;20028;-75
2021/05/13 03:25:39;;;;;;;19.80;14.68;;;10.50;84.90;;;;;;5047590;28;20094;-75
2021/05/13 03:28:09;;;;;;;25.92;15.43;;;10.50;85.10;;;;;;5092817;28;20115;-75
2021/05/13 03:30:40;;;;;;;29.50;16.48;;;10.40;85.10;;;;;;5074534;28;20116;-75
2021/05/13 03:33:07;;;;;;;21.83;14.82;;;10.50;85.30;;;;;;5091187;28;20034;-75
2021/05/13 03:35:33;;;;;;;23.60;16.05;;;10.50;85.40;;;;;;5065518;28;20066;-75
2021/05/13 03:37:59;;;;;;;21.77;15.05;;;10.40;85.30;;;;;;5054182;28;20032;-75
2021/05/13 03:40:28;;;;;;;22.58;15.82;;;10.50;85.40;;;;;;5061930;28;20032;-75
2021/05/13 03:42:54;;;;;;;23.42;16.15;;;10.50;85.50;;;;;;5092157;28;20404;-75
2021/05/13 03:45:20;;;;;;;21.25;15.35;;;10.40;85.50;;;;;;5106203;28;20040;-74
2021/05/13 03:47:46;;;;;;;19.58;16.48;;;10.40;85.60;;;;;;5090256;28;20116;-75
2021/05/13 03:50:12;;;;;;;26.98;20.40;;;10.40;85.70;;;;;;5074745;28;20549;-75
2021/05/13 03:52:38;;;;;;;23.08;18.65;;;10.40;85.70;;;;;;5074475;28;20028;-75
2021/05/13 03:55:04;;;;;;;24.27;18.95;;;10.30;85.70;;;;;;5074560;28;20540;-75
2021/05/13 03:57:30;;;;;;;23.63;18.58;;;10.30;86.00;;;;;;5072889;28;20078;-75
2021/05/13 03:59:58;;;;;;;26.00;20.40;;;10.30;86.10;;;;;;5074823;28;20098;-75
2021/05/13 04:04:55;;;;;;;30.55;19.58;;;10.30;86.20;;;;;;5072098;28;20136;-75
2021/05/13 04:07:21;;;;;;;32.85;23.15;;;10.20;86.20;;;;;;5073894;28;20163;-75
2021/05/13 04:09:47;;;;;;;34.97;25.13;;;10.20;86.30;;;;;;5092402;28;20032;-75
2021/05/13 04:12:13;;;;;;;24.75;20.25;;;10.20;86.30;;;;;;5092078;28;20603;-75
2021/05/13 04:14:39;;;;;;;26.33;20.48;;;10.20;86.40;;;;;;5071634;28;20126;-75
2021/05/13 04:17:07;;;;;;;33.13;21.60;;;10.20;86.50;;;;;;5088396;28;20482;-75
2021/05/13 04:19:34;;;;;;;34.83;24.33;;;10.20;86.30;;;;;;5072848;28;20034;-75
2021/05/13 04:22:01;;;;;;;34.95;25.38;;;10.30;86.40;;;;;;5087940;28;20064;-75
2021/05/13 04:24:26;;;;;;;37.75;26.08;;;10.30;86.40;;;;;;5071942;28;20546;-75
2021/05/13 04:26:52;;;;;;;62.97;27.95;;;10.20;86.60;;;;;;5073533;28;20032;-75
2021/05/13 04:29:18;;;;;;;89.85;27.83;;;10.30;86.90;;;;;;5053646;28;20123;-75
2021/05/13 04:31:43;;;;;;;84.63;28.33;;;10.20;86.90;;;;;;5091707;28;20133;-75
2021/05/13 04:34:09;;;;;;;126.15;27.25;;;10.20;87.00;;;;;;5077804;28;20047;-75
2021/05/13 04:36:35;;;;;;;107.68;27.50;;;10.20;87.20;;;;;;5078205;28;20024;-75
2021/05/13 04:39:00;;;;;;;112.07;26.48;;;10.20;87.30;;;;;;5096390;28;20028;-75
2021/05/13 04:41:29;;;;;;;87.75;26.58;;;10.20;87.70;;;;;;5095794;28;20090;-75
2021/05/13 04:43:55;;;;;;;;;;;10.20;87.80;;;;;;5078877;28;20469;-75
2021/05/13 04:46:27;;;;;;;250.57;32.42;;;10.20;87.50;;;;;;5104079;27;19926;-75
2021/05/13 04:51:19;;;;;;;90.38;26.90;;;10.20;87.80;;;;;;5075792;28;20063;-75
2021/05/13 04:53:49;;;;;;;89.63;26.58;;;10.30;87.90;;;;;;5094794;28;20035;-75
2021/05/13 04:56:16;;;;;;;90.10;29.30;;;10.30;87.90;;;;;;5095593;28;20031;-75
2021/05/13 04:58:43;;;;;;;60.53;29.52;;;10.40;88.40;;;;;;5095535;28;20073;-75
2021/05/13 05:01:09;;;;;;;62.72;28.80;;;10.40;87.90;;;;;;5093212;28;20012;-75
2021/05/13 05:03:35;;;;;;;107.55;31.77;;;10.40;87.90;;;;;;5095546;28;20028;-75
2021/05/13 05:06:00;;;;;;;42.72;26.90;;;10.50;87.90;;;;;;5094828;28;20435;-75
2021/05/13 05:08:26;;;;;;;116.68;33.05;;;10.50;87.80;;;;;;5095628;28;20032;-75
2021/05/13 05:10:52;;;;;;;92.07;31.35;;;10.50;87.80;;;;;;5080948;28;20027;-75
2021/05/13 05:13:17;;;;;;;54.65;28.60;;;10.50;87.80;;;;;;5093678;28;20085;-75
2021/05/13 05:15:43;;;;;;;90.25;30.70;;;10.50;87.70;;;;;;5061591;28;20032;-75
2021/05/13 05:18:19;;;;;;;80.85;32.60;;;10.60;87.80;;;;;;5077267;28;20051;-75
2021/05/13 05:20:45;;;;;;;103.32;32.47;;;10.60;88.10;;;;;;5060945;28;20551;-75
2021/05/13 05:23:11;;;;;;;97.82;34.60;;;10.60;88.00;;;;;;5076500;28;20039;-75
2021/05/13 05:25:38;;;;;;;99.50;33.05;;;10.60;88.10;;;;;;5094015;28;20103;-75
2021/05/13 05:28:04;;;;;;;207.80;38.30;;;10.60;88.10;;;;;;5083014;28;20031;-75
2021/05/13 05:30:33;;;;;;;94.57;31.73;;;10.70;88.00;;;;;;5095401;28;20023;-75
2021/05/13 05:33:03;;;;;;;79.60;31.45;;;10.80;88.00;;;;;;5094502;28;20023;-75
2021/05/13 05:35:28;;;;;;;57.75;34.58;;;10.90;87.90;;;;;;5094627;28;20089;-75
2021/05/13 05:37:55;;;;;;;88.00;36.80;;;10.90;87.70;;;;;;5074335;28;20485;-75
2021/05/13 05:40:22;;;;;;;61.50;35.90;;;11.00;87.70;;;;;;5095162;28;20020;-75
2021/05/13 05:42:48;;;;;;;85.47;36.67;;;11.00;87.70;;;;;;5093387;28;20024;-75
2021/05/13 05:45:14;;;;;;;59.30;31.85;;;11.00;87.70;;;;;;5075228;28;20430;-75
2021/05/13 05:47:40;;;;;;;69.20;36.03;;;11.10;87.70;;;;;;5092922;28;20123;-75
2021/05/13 05:50:07;;;;;;;53.65;34.78;;;11.20;87.60;;;;;;5056168;28;20123;-75
2021/05/13 05:52:32;;;;;;;47.40;35.10;;;11.20;87.50;;;;;;5089659;28;20111;-75
2021/05/13 05:54:58;;;;;;;46.90;34.13;;;11.20;87.40;;;;;;5082027;28;20115;-75
2021/05/13 05:57:24;;;;;;;51.15;36.17;;;11.30;87.40;;;;;;5088007;28;20039;-75
2021/05/13 05:59:49;;;;;;;49.63;37.00;;;11.40;87.40;;;;;;5053707;28;20057;-75
2021/05/13 06:02:15;;;;;;;53.05;37.67;;;11.50;87.40;;;;;;5041885;28;20038;-75
2021/05/13 06:04:40;;;;;;;55.20;38.00;;;11.60;87.30;;;;;;5094826;28;20119;-75
2021/05/13 06:07:07;;;;;;;51.80;39.13;;;11.70;87.10;;;;;;5089053;28;20477;-75
2021/05/13 06:09:32;;;;;;;50.28;36.25;;;11.80;86.90;;;;;;5075848;28;20035;-75
2021/05/13 06:11:58;;;;;;;53.35;39.15;;;11.90;86.70;;;;;;5081559;28;20051;-75
2021/05/13 06:14:24;;;;;;;50.97;36.53;;;12.00;86.60;;;;;;5077757;28;20513;-75
2021/05/13 06:16:50;;;;;;;50.15;36.92;;;12.10;86.50;;;;;;5088682;28;20028;-75
2021/05/13 06:19:18;;;;;;;56.13;38.38;;;12.20;86.20;;;;;;5093998;28;20024;-75
2021/05/13 06:21:44;;;;;;;47.65;35.60;;;12.30;85.90;;;;;;5092101;28;20388;-75
2021/05/13 06:24:11;;;;;;;51.08;37.17;;;12.50;85.70;;;;;;5063811;28;20115;-75
2021/05/13 06:26:38;;;;;;;47.60;36.28;;;12.60;85.40;;;;;;5091551;28;20016;-75
2021/05/13 06:29:05;;;;;;;46.30;34.92;;;12.70;85.10;;;;;;5094098;28;20057;-75
2021/05/13 06:31:31;;;;;;;47.20;35.53;;;12.90;84.90;;;;;;5067138;28;20043;-75
2021/05/13 06:33:57;;;;;;;47.67;35.90;;;13.00;84.50;;;;;;5074106;28;20043;-75
2021/05/13 06:36:23;;;;;;;45.25;33.92;;;13.20;84.00;;;;;;5089704;28;20111;-75
2021/05/13 06:38:48;;;;;;;47.88;35.22;;;13.30;83.60;;;;;;5082912;28;20028;-75
2021/05/13 06:41:14;;;;;;;41.75;32.55;;;13.50;83.30;;;;;;5069701;28;20127;-75
2021/05/13 06:43:40;;;;;;;44.63;32.92;;;13.60;82.80;;;;;;5082256;28;20050;-75
2021/05/13 06:46:06;;;;;;;44.60;34.08;;;13.70;82.50;;;;;;5073416;28;20035;-75
2021/05/13 06:48:35;;;;;;;40.28;32.25;;;13.90;81.90;;;;;;5087208;28;20066;-75
2021/05/13 06:51:01;;;;;;;;;;;14.00;81.30;;;;;;5093422;28;20060;-75
2021/05/13 06:53:27;;;;;;;46.58;33.90;;;14.20;80.80;;;;;;5092539;28;19951;-75
2021/05/13 06:55:53;;;;;;;41.33;32.60;;;14.30;80.50;;;;;;5074661;28;20028;-75
2021/05/13 06:58:22;;;;;;;43.08;32.60;;;14.40;80.20;;;;;;5057119;28;20149;-75
2021/05/13 07:00:49;;;;;;;46.38;34.75;;;14.60;79.60;;;;;;5074814;28;20370;-75
2021/05/13 07:03:15;;;;;;;42.95;32.33;;;14.70;79.00;;;;;;5091075;28;20469;-76
2021/05/13 07:05:41;;;;;;;40.72;31.08;;;14.80;78.40;;;;;;5091095;28;20421;-75
2021/05/13 07:08:09;;;;;;;42.28;31.67;;;14.90;77.70;;;;;;5072522;28;20012;-75
2021/05/13 07:10:35;;;;;;;37.67;28.63;;;15.00;77.20;;;;;;5052407;28;20089;-75
2021/05/13 07:13:01;;;;;;;37.17;29.02;;;15.20;77.00;;;;;;5088033;28;20099;-75
2021/05/13 07:15:26;;;;;;;36.08;28.38;;;15.30;76.00;;;;;;5052798;28;20119;-75
2021/05/13 07:17:52;;;;;;;36.08;27.25;;;15.40;75.60;;;;;;5089458;28;20024;-75
2021/05/13 07:20:19;;;;;;;35.65;26.63;;;15.50;75.30;;;;;;5055817;28;20366;-75
2021/05/13 07:22:44;;;;;;;33.47;24.88;;;15.60;74.70;;;;;;5087379;28;20024;-75
2021/05/13 07:25:10;;;;;;;32.13;23.45;;;15.80;74.00;;;;;;5069008;28;20430;-75
2021/05/13 07:27:36;;;;;;;32.17;25.17;;;15.90;72.90;;;;;;5074012;28;20032;-75
2021/05/13 07:30:02;;;;;;;29.05;23.17;;;16.00;72.50;;;;;;5055799;28;20055;-75
2021/05/13 07:32:28;;;;;;;30.10;23.85;;;16.10;72.60;;;;;;5090979;28;20067;-75
2021/05/13 07:34:53;;;;;;;28.27;23.02;;;16.10;72.00;;;;;;5051022;28;20056;-75
2021/05/13 07:37:19;;;;;;;28.83;22.23;;;16.20;72.00;;;;;;5088773;28;20035;-75
2021/05/13 07:39:45;;;;;;;27.85;21.63;;;16.20;71.70;;;;;;5053284;28;20075;-75
2021/05/13 07:47:59;;;;;;;28.05;21.63;;;16.40;70.90;;;;;;5063299;28;20037;-75
2021/05/13 07:50:25;;;;;;;23.20;20.58;;;16.40;71.40;;;;;;5062645;28;20061;-75
2021/05/13 07:52:51;;;;;;;29.02;22.25;;;16.40;72.00;;;;;;5070160;28;20024;-75
2021/05/13 07:55:18;;;;;;;26.95;20.23;;;16.40;71.20;;;;;;5071993;28;20033;-75
2021/05/13 07:57:44;;;;;;;24.23;19.48;;;16.40;70.80;;;;;;5072744;28;20029;-75
2021/05/13 08:00:11;;;;;;;21.00;17.88;;;16.50;70.50;;;;;;5067178;28;20104;-75
2021/05/13 08:02:36;;;;;;;22.42;18.67;;;16.50;69.90;;;;;;5057684;28;20035;-75
2021/05/13 08:05:03;;;;;;;21.80;18.17;;;16.50;70.00;;;;;;5071133;28;20029;-75
2021/05/13 08:07:28;;;;;;;25.83;19.05;;;16.50;70.20;;;;;;5071164;28;20056;-75
2021/05/13 08:09:54;;;;;;;22.20;18.05;;;16.50;70.00;;;;;;5056909;28;20079;-75
2021/05/13 08:12:20;;;;;;;27.95;20.05;;;16.60;70.00;;;;;;5101408;28;20435;-75
2021/05/13 08:14:46;;;;;;;21.98;17.90;;;16.70;69.80;;;;;;5073483;28;20579;-75
2021/05/13 08:17:12;;;;;;;24.05;16.40;;;16.70;69.40;;;;;;5066601;28;20048;-75
2021/05/13 08:19:38;;;;;;;24.40;15.82;;;16.80;68.90;;;;;;5061764;28;20119;-75
2021/05/13 08:22:05;;;;;;;19.95;15.07;;;16.90;68.40;;;;;;5075952;28;20028;-75
2021/05/13 08:24:31;;;;;;;20.10;14.82;;;17.00;67.80;;;;;;5070187;28;20055;-75
2021/05/13 08:26:58;;;;;;;18.38;14.35;;;17.30;67.20;;;;;;5057353;28;20025;-75
2021/05/13 08:29:28;;;;;;;17.15;14.10;;;17.50;66.40;;;;;;5074701;28;20420;-75
2021/05/13 08:31:55;;;;;;;18.00;11.88;;;17.80;65.30;;;;;;5058067;28;20032;-76
2021/05/13 08:34:21;;;;;;;18.48;13.38;;;18.00;65.10;;;;;;5054886;28;20082;-75
2021/05/13 08:36:46;;;;;;;16.30;11.90;;;18.10;63.20;;;;;;5055103;28;20025;-76
2021/05/13 08:39:12;;;;;;;15.75;11.40;;;18.10;62.20;;;;;;5074278;28;20028;-75
2021/05/13 08:41:38;;;;;;;13.48;9.30;;;18.10;62.80;;;;;;5076036;28;20033;-76
2021/05/13 08:44:07;;;;;;;12.77;7.63;;;18.20;62.60;;;;;;5040433;28;20398;-75
2021/05/13 08:46:36;;;;;;;13.10;8.40;;;18.40;61.30;;;;;;5073168;28;20032;-75
2021/05/13 08:49:02;;;;;;;;;;;18.60;59.80;;;;;;5094088;28;20370;-74
2021/05/13 08:51:28;;;;;;;11.93;5.82;;;18.70;59.80;;;;;;5093263;28;20368;-74
2021/05/13 08:53:55;;;;;;;7.75;5.20;;;18.80;58.50;;;;;;5107369;28;20047;-74
2021/05/13 08:56:23;;;;;;;6.60;2.90;;;19.00;58.10;;;;;;5084622;28;20074;-75
2021/05/13 08:58:49;;;;;;;12.40;4.28;;;19.20;56.30;;;;;;5095357;28;20024;-75
2021/05/13 09:01:22;;;;;;;9.73;4.53;;;19.40;54.50;;;;;;5095158;28;20028;-75
2021/05/13 09:03:50;;;;;;;6.80;3.60;;;19.50;54.50;;;;;;5076418;28;20558;-75
2021/05/13 09:06:28;;;;;;;7.53;2.38;;;19.70;53.90;;;;;;5076780;28;20039;-74
2021/05/13 09:09:13;;;;;;;6.43;1.80;;;19.90;53.40;;;;;;5075522;28;20036;-74
2021/05/13 09:11:48;;;;;;;6.53;1.67;;;20.20;51.80;;;;;;5085964;28;20032;-74
2021/05/13 09:14:29;;;;;;;4.88;2.00;;;20.30;51.30;;;;;;5063710;28;20029;-74
2021/05/13 09:16:56;;;;;;;5.13;2.40;;;20.40;51.50;;;;;;5091735;28;20020;-74
2021/05/13 09:19:27;;;;;;;65.05;3.33;;;20.60;51.40;;;;;;5075415;28;20034;-74
2021/05/13 09:21:58;;;;;;;7.38;1.40;;;20.80;50.40;;;;;;5077181;28;20031;-75
2021/05/13 09:24:45;;;;;;;8.07;1.60;;;20.90;49.10;;;;;;5076010;28;20036;-75
2021/05/13 09:27:34;;;;;;;5.72;1.60;;;21.10;47.80;;;;;;5093885;28;20031;-75
2021/05/13 09:30:17;;;;;;;4.40;1.20;;;21.10;47.10;;;;;;5075609;28;20110;-75
2021/05/13 09:32:45;;;;;;;4.82;1.55;;;21.20;44.80;;;;;;5088787;28;20035;-74
2021/05/13 09:35:14;;;;;;;4.53;1.50;;;21.20;44.80;;;;;;5085876;28;20032;-74
2021/05/13 09:38:00;;;;;;;;;;;21.30;44.60;;;;;;5094046;28;20024;-74
2021/05/13 09:40:36;;;;;;;6.35;1.85;;;21.40;44.40;;;;;;5095022;28;20358;-75
2021/05/13 09:43:11;;;;;;;10.52;1.98;;;21.30;44.60;;;;;;5094616;28;20473;-73
2021/05/13 09:45:45;;;;;;;5.10;1.60;;;21.40;44.40;;;;;;5077423;28;20020;-74
2021/05/13 09:48:11;;;;;;;4.32;1.92;;;21.40;44.50;;;;;;5078314;28;20036;-75
2021/05/13 09:50:37;;;;;;;7.28;1.80;;;21.50;44.10;;;;;;5075188;28;20020;-75
2021/05/13 09:53:03;;;;;;;6.97;2.22;;;21.60;43.80;;;;;;5092253;28;20016;-74
2021/05/13 09:55:31;;;;;;;4.28;1.70;;;21.70;44.10;;;;;;5088057;28;20028;-75
2021/05/13 09:58:01;;;;;;;6.35;1.83;;;21.60;44.70;;;;;;5077723;28;20112;-74
2021/05/13 10:00:34;;;;;;;4.15;1.38;;;21.70;45.30;;;;;;5094585;28;20358;-74
2021/05/13 10:03:01;;;;;;;6.10;1.90;;;21.90;43.80;;;;;;5094323;28;20020;-75
2021/05/13 10:05:27;;;;;;;6.13;2.00;;;21.90;43.20;;;;;;5076100;28;20032;-75
2021/05/13 10:07:53;;;;;;;5.40;1.45;;;22.00;42.80;;;;;;5071617;28;20038;-75
2021/05/13 10:10:19;;;;;;;7.05;1.80;;;22.20;41.90;;;;;;5057914;28;20028;-74
2021/05/13 10:12:46;;;;;;;8.10;2.22;;;22.30;41.20;;;;;;5088587;28;20032;-75
2021/05/13 10:15:14;;;;;;;4.78;2.05;;;22.40;42.50;;;;;;5085116;28;20027;-74
2021/05/13 10:17:48;;;;;;;4.60;1.67;;;22.30;42.80;;;;;;5094216;28;20051;-75
2021/05/13 10:20:20;;;;;;;4.30;2.10;;;22.10;42.00;;;;;;5093961;28;20038;-74
2021/05/13 10:22:47;;;;;;;4.63;1.48;;;21.70;43.30;;;;;;5095155;28;20028;-74
2021/05/13 10:25:22;;;;;;;3.20;1.23;;;21.30;43.20;;;;;;5090061;28;20035;-74
2021/05/13 10:27:54;;;;;;;7.55;1.80;;;21.00;43.40;;;;;;5072649;28;20111;-74
2021/05/13 10:30:24;;;;;;;6.60;2.33;;;20.80;44.90;;;;;;5072978;28;20020;-75
2021/05/13 10:33:05;;;;;;;7.07;2.38;;;20.90;44.60;;;;;;5074952;28;20039;-74
2021/05/13 10:35:31;;;;;;;5.78;2.08;;;21.00;45.00;;;;;;5074306;28;20089;-75
2021/05/13 10:38:05;;;;;;;5.82;1.70;;;21.10;44.40;;;;;;5092022;28;20423;-74
2021/05/13 10:43:08;;;;;;;5.38;1.42;;;21.40;43.20;;;;;;5086728;28;20025;-74
2021/05/13 10:45:44;;;;;;;3.08;1.30;;;21.60;42.70;;;;;;5085813;28;20028;-74
2021/05/13 10:48:25;;;;;;;7.15;1.70;;;21.90;42.80;;;;;;5074520;28;20078;-74
2021/05/13 10:51:02;;;;;;;4.53;1.70;;;22.30;42.20;;;;;;5093212;28;20032;-74
2021/05/13 10:53:34;;;;;;;3.95;1.40;;;22.50;41.10;;;;;;5092998;28;20398;-75
2021/05/13 10:56:27;;;;;;;9.35;1.80;;;22.70;40.90;;;;;;5074908;28;20357;-75
2021/05/13 10:59:09;;;;;;;8.98;1.40;;;22.70;40.50;;;;;;5089026;28;20496;-74
2021/05/13 11:01:45;;;;;;;10.25;1.95;;;22.40;41.10;;;;;;5093231;28;20109;-74
2021/05/13 11:04:22;;;;;;;5.60;1.52;;;22.10;41.50;;;;;;5093401;28;20020;-75
2021/05/13 11:07:01;;;;;;;7.38;1.88;;;22.10;42.50;;;;;;5073258;28;20056;-74
2021/05/13 11:09:42;;;;;;;5.47;1.80;;;22.40;42.50;;;;;;5088394;28;20039;-74
2021/05/13 11:12:35;;;;;;;4.57;1.67;;;22.60;40.20;;;;;;5073162;28;20111;-75
2021/05/13 11:17:44;;;;;;;4.82;1.67;;;22.70;40.40;;;;;;5091621;28;20028;-74
2021/05/13 11:20:19;;;;;;;5.35;2.35;;;22.70;41.50;;;;;;5077813;28;20062;-74
2021/05/13 11:22:53;;;;;;;3.35;1.70;;;22.80;40.80;;;;;;5092006;28;20447;-75
2021/05/13 11:25:18;;;;;;;4.65;2.08;;;22.90;41.70;;;;;;5055049;28;20036;-75
2021/05/13 11:27:44;;;;;;;7.65;2.20;;;23.00;40.80;;;;;;5061625;28;20029;-75
2021/05/13 11:30:10;;;;;;;6.30;2.25;;;23.10;40.80;;;;;;5082455;28;20490;-75
2021/05/13 11:32:36;;;;;;;6.30;2.50;;;23.00;40.90;;;;;;5093036;28;20058;-75
2021/05/13 11:35:03;;;;;;;8.02;2.50;;;22.90;41.40;;;;;;5092663;28;20405;-75
2021/05/13 11:37:36;;;;;;;5.50;2.10;;;22.70;41.10;;;;;;5090314;28;20030;-74
2021/05/13 11:40:26;;;;;;;5.47;2.33;;;22.40;41.70;;;;;;5085748;28;20085;-74
2021/05/13 11:43:32;;;;;;;6.78;2.75;;;22.40;42.90;;;;;;5091263;28;20461;-75
2021/05/13 11:46:00;;;;;;;5.50;1.98;;;22.60;42.50;;;;;;5089161;28;20044;-74
2021/05/13 11:48:31;;;;;;;5.43;2.20;;;22.90;41.70;;;;;;5057406;28;20076;-75
2021/05/13 11:51:18;;;;;;;3.63;1.85;;;22.90;41.20;;;;;;5087119;28;20413;-75
2021/05/13 11:53:46;;;;;;;5.40;2.35;;;22.80;41.20;;;;;;5067528;28;20044;-75
2021/05/13 11:56:13;;;;;;;8.50;2.47;;;22.70;41.60;;;;;;5085160;28;20016;-75
2021/05/13 11:58:50;;;;;;;5.57;2.00;;;22.70;40.20;;;;;;5069272;28;20267;-75
2021/05/13 12:01:23;;;;;;;5.88;2.00;;;22.90;42.00;;;;;;5074016;28;20035;-75
2021/05/13 12:03:55;;;;;;;6.78;1.90;;;23.10;41.10;;;;;;5067877;28;20077;-74
2021/05/13 12:06:22;;;;;;;5.53;1.80;;;23.40;40.00;;;;;;5081660;28;20028;-75
2021/05/13 12:08:48;;;;;;;5.40;1.70;;;23.60;39.60;;;;;;5067911;28;20032;-75
2021/05/13 12:11:21;;;;;;;5.07;1.92;;;23.80;40.20;;;;;;5081270;28;20542;-75
2021/05/13 12:13:48;;;;;;;3.50;1.83;;;24.00;40.00;;;;;;5089471;28;20116;-75
2021/05/13 12:16:15;;;;;;;6.93;2.08;;;24.10;39.90;;;;;;5091344;28;20024;-74
2021/05/13 12:18:42;;;;;;;6.78;2.17;;;23.90;39.40;;;;;;5075867;28;20023;-75
2021/05/13 12:21:09;;;;;;;5.55;2.00;;;23.50;39.30;;;;;;5073633;28;20024;-75
2021/05/13 12:23:38;;;;;;;6.03;2.30;;;23.30;40.50;;;;;;5091228;28;20028;-75
2021/05/13 12:26:05;;;;;;;;;;;23.10;40.50;;;;;;5091535;28;20045;-74
2021/05/13 12:28:30;;;;;;;9.63;2.08;;;22.90;41.10;;;;;;5092249;28;20364;-74
2021/05/13 12:30:56;;;;;;;4.78;1.70;;;22.90;41.40;;;;;;5090711;28;20065;-74
2021/05/13 12:33:28;;;;;;;3.58;1.30;;;22.80;40.60;;;;;;5067682;28;20063;-74
2021/05/13 12:35:55;;;;;;;9.27;1.45;;;22.70;40.70;;;;;;5063361;28;20024;-75
2021/05/13 12:38:23;;;;;;;5.22;1.40;;;22.50;40.80;;;;;;5072144;28;20397;-75
2021/05/13 12:41:09;;;;;;;4.70;1.60;;;22.40;41.20;;;;;;5091569;28;20028;-75
2021/05/13 12:43:35;;;;;;;7.55;1.85;;;22.20;39.40;;;;;;5064914;28;20066;-74
2021/05/13 12:46:13;;;;;;;4.75;1.30;;;22.00;40.90;;;;;;5072128;28;20028;-74
2021/05/13 12:48:39;;;;;;;;;;;21.80;40.90;;;;;;5082875;28;20384;-75
2021/05/13 12:51:07;;;;;;;5.97;1.30;;;21.60;41.40;;;;;;5091268;28;19915;-74
2021/05/13 12:53:33;;;;;;;3.45;1.23;;;21.60;41.80;;;;;;5054603;28;20044;-74
2021/05/13 12:56:00;;;;;;;4.38;1.50;;;21.50;42.30;;;;;;5058119;28;20474;-74
2021/05/13 12:58:27;;;;;;;4.05;1.48;;;21.50;42.40;;;;;;5058661;28;20028;-74
2021/05/13 13:01:00;;;;;;;7.32;1.48;;;21.50;41.30;;;;;;5097364;28;20028;-74
2021/05/13 13:03:37;;;;;;;5.15;1.40;;;21.50;42.10;;;;;;5071491;28;20029;-74